sensor_id;sensor_type;location;lat;lon;timestamp;P1;durP1;ratioP1;P2;durP2;ratioP2
59468;SDS011;45277;52.768;18.262;2023-05-07T00:00:25;20.30;;;12.13;;
59468;SDS011;45277;52.768;18.262;2023-05-07T00:02:17;18.58;;;12.35;;
59468;SDS011;45277;52.768;18.262;2023-05-07T00:03:48;22.80;;;12.07;;
59468;SDS011;45277;52.768;18.262;2023-05-07T00:05:20;18.42;;;12.05;;
59468;SDS011;45277;52.768;18.262;2023-05-07T00:06:51;19.25;;;11.95;;
59468;SDS011;45277;52.768;18.262;2023-05-07T00:08:22;20.63;;;12.15;;
59468;SDS011;45277;52.768;18.262;2023-05-07T00:09:54;18.75;;;12.48;;
59468;SDS011;45277;52.768;18.262;2023-05-07T00:11:25;20.63;;;12.85;;
59468;SDS011;45277;52.768;18.262;2023-05-07T00:12:57;21.00;;;13.48;;
59468;SDS011;45277;52.768;18.262;2023-05-07T00:14:29;22.88;;;13.68;;
59468;SDS011;45277;52.768;18.262;2023-05-07T00:16:01;22.20;;;13.65;;
59468;SDS011;45277;52.768;18.262;2023-05-07T00:17:33;19.88;;;12.88;;
59468;SDS011;45277;52.768;18.262;2023-05-07T00:19:05;22.85;;;14.02;;
59468;SDS011;45277;52.768;18.262;2023-05-07T00:20:36;19.42;;;13.15;;
59468;SDS011;45277;52.768;18.262;2023-05-07T00:22:07;22.13;;;13.65;;
59468;SDS011;45277;52.768;18.262;2023-05-07T00:23:39;21.85;;;13.05;;
59468;SDS011;45277;52.768;18.262;2023-05-07T00:25:10;20.67;;;13.57;;
59468;SDS011;45277;52.768;18.262;2023-05-07T00:26:42;22.45;;;13.35;;
59468;SDS011;45277;52.768;18.262;2023-05-07T00:28:14;22.52;;;13.93;;
59468;SDS011;45277;52.768;18.262;2023-05-07T00:29:45;21.23;;;13.35;;
59468;SDS011;45277;52.768;18.262;2023-05-07T00:31:16;20.05;;;13.45;;
59468;SDS011;45277;52.768;18.262;2023-05-07T00:32:48;23.17;;;14.45;;
59468;SDS011;45277;52.768;18.262;2023-05-07T00:34:21;20.45;;;12.52;;
59468;SDS011;45277;52.768;18.262;2023-05-07T00:35:52;22.83;;;13.52;;
59468;SDS011;45277;52.768;18.262;2023-05-07T00:37:27;20.25;;;13.18;;
59468;SDS011;45277;52.768;18.262;2023-05-07T00:38:59;23.42;;;13.77;;
59468;SDS011;45277;52.768;18.262;2023-05-07T00:40:33;19.83;;;12.82;;
59468;SDS011;45277;52.768;18.262;2023-05-07T00:42:05;18.77;;;12.63;;
59468;SDS011;45277;52.768;18.262;2023-05-07T00:43:36;22.33;;;12.50;;
59468;SDS011;45277;52.768;18.262;2023-05-07T00:45:08;21.10;;;13.32;;
59468;SDS011;45277;52.768;18.262;2023-05-07T00:46:41;26.95;;;14.18;;
59468;SDS011;45277;52.768;18.262;2023-05-07T00:48:13;20.25;;;13.23;;
59468;SDS011;45277;52.768;18.262;2023-05-07T00:49:44;19.25;;;13.15;;
59468;SDS011;45277;52.768;18.262;2023-05-07T00:51:17;21.15;;;12.77;;
59468;SDS011;45277;52.768;18.262;2023-05-07T00:52:49;23.05;;;13.07;;
59468;SDS011;45277;52.768;18.262;2023-05-07T00:54:20;18.45;;;12.48;;
59468;SDS011;45277;52.768;18.262;2023-05-07T00:55:52;21.83;;;12.70;;
59468;SDS011;45277;52.768;18.262;2023-05-07T00:57:24;18.52;;;12.20;;
59468;SDS011;45277;52.768;18.262;2023-05-07T00:58:56;18.58;;;12.05;;
59468;SDS011;45277;52.768;18.262;2023-05-07T01:00:27;21.02;;;12.10;;
59468;SDS011;45277;52.768;18.262;2023-05-07T01:01:59;19.67;;;12.15;;
59468;SDS011;45277;52.768;18.262;2023-05-07T01:03:30;20.25;;;11.98;;
59468;SDS011;45277;52.768;18.262;2023-05-07T01:05:02;19.63;;;12.77;;
59468;SDS011;45277;52.768;18.262;2023-05-07T01:06:36;22.30;;;12.98;;
59468;SDS011;45277;52.768;18.262;2023-05-07T01:08:07;22.38;;;13.60;;
59468;SDS011;45277;52.768;18.262;2023-05-07T01:09:39;17.52;;;12.63;;
59468;SDS011;45277;52.768;18.262;2023-05-07T01:11:11;19.65;;;12.88;;
59468;SDS011;45277;52.768;18.262;2023-05-07T01:12:42;22.02;;;13.80;;
59468;SDS011;45277;52.768;18.262;2023-05-07T01:14:17;20.60;;;13.13;;
59468;SDS011;45277;52.768;18.262;2023-05-07T01:15:50;23.95;;;13.13;;
59468;SDS011;45277;52.768;18.262;2023-05-07T01:17:22;17.27;;;12.45;;
59468;SDS011;45277;52.768;18.262;2023-05-07T01:18:54;21.65;;;13.32;;
59468;SDS011;45277;52.768;18.262;2023-05-07T01:20:26;20.50;;;13.60;;
59468;SDS011;45277;52.768;18.262;2023-05-07T01:22:05;24.67;;;14.70;;
59468;SDS011;45277;52.768;18.262;2023-05-07T01:25:11;29.85;;;17.42;;
59468;SDS011;45277;52.768;18.262;2023-05-07T01:26:44;24.63;;;17.00;;
59468;SDS011;45277;52.768;18.262;2023-05-07T01:28:15;25.77;;;16.33;;
59468;SDS011;45277;52.768;18.262;2023-05-07T01:29:47;24.75;;;15.05;;
59468;SDS011;45277;52.768;18.262;2023-05-07T01:31:18;25.98;;;14.18;;
59468;SDS011;45277;52.768;18.262;2023-05-07T01:32:51;22.73;;;14.07;;
59468;SDS011;45277;52.768;18.262;2023-05-07T01:34:28;21.17;;;14.35;;
59468;SDS011;45277;52.768;18.262;2023-05-07T01:36:03;21.83;;;12.70;;
59468;SDS011;45277;52.768;18.262;2023-05-07T01:37:37;18.05;;;12.32;;
59468;SDS011;45277;52.768;18.262;2023-05-07T01:39:11;18.35;;;12.80;;
59468;SDS011;45277;52.768;18.262;2023-05-07T01:40:43;23.75;;;12.55;;
59468;SDS011;45277;52.768;18.262;2023-05-07T01:42:14;25.42;;;12.70;;
59468;SDS011;45277;52.768;18.262;2023-05-07T01:43:46;21.13;;;11.55;;
59468;SDS011;45277;52.768;18.262;2023-05-07T01:45:18;19.58;;;12.02;;
59468;SDS011;45277;52.768;18.262;2023-05-07T01:46:50;18.38;;;11.20;;
59468;SDS011;45277;52.768;18.262;2023-05-07T01:48:22;18.80;;;11.55;;
59468;SDS011;45277;52.768;18.262;2023-05-07T01:49:55;21.50;;;11.10;;
59468;SDS011;45277;52.768;18.262;2023-05-07T01:51:27;16.33;;;10.45;;
59468;SDS011;45277;52.768;18.262;2023-05-07T01:52:59;20.10;;;11.40;;
59468;SDS011;45277;52.768;18.262;2023-05-07T01:54:32;19.58;;;10.50;;
59468;SDS011;45277;52.768;18.262;2023-05-07T01:56:03;22.08;;;11.02;;
59468;SDS011;45277;52.768;18.262;2023-05-07T01:57:35;21.23;;;10.60;;
59468;SDS011;45277;52.768;18.262;2023-05-07T01:59:07;18.80;;;10.70;;
59468;SDS011;45277;52.768;18.262;2023-05-07T02:00:39;20.52;;;11.05;;
59468;SDS011;45277;52.768;18.262;2023-05-07T02:02:11;16.08;;;10.27;;
59468;SDS011;45277;52.768;18.262;2023-05-07T02:03:43;15.57;;;10.07;;
59468;SDS011;45277;52.768;18.262;2023-05-07T02:05:14;17.73;;;10.50;;
59468;SDS011;45277;52.768;18.262;2023-05-07T02:06:46;17.45;;;10.18;;
59468;SDS011;45277;52.768;18.262;2023-05-07T02:08:17;16.27;;;9.98;;
59468;SDS011;45277;52.768;18.262;2023-05-07T02:09:49;13.63;;;9.27;;
59468;SDS011;45277;52.768;18.262;2023-05-07T02:11:20;17.92;;;10.38;;
59468;SDS011;45277;52.768;18.262;2023-05-07T02:12:52;18.05;;;9.88;;
59468;SDS011;45277;52.768;18.262;2023-05-07T02:14:23;15.23;;;9.63;;
59468;SDS011;45277;52.768;18.262;2023-05-07T02:15:55;15.40;;;10.25;;
59468;SDS011;45277;52.768;18.262;2023-05-07T02:17:26;18.42;;;9.93;;
59468;SDS011;45277;52.768;18.262;2023-05-07T02:18:58;18.08;;;10.85;;
59468;SDS011;45277;52.768;18.262;2023-05-07T02:20:30;17.58;;;10.07;;
59468;SDS011;45277;52.768;18.262;2023-05-07T02:22:01;19.60;;;10.73;;
59468;SDS011;45277;52.768;18.262;2023-05-07T02:23:32;18.30;;;9.43;;
59468;SDS011;45277;52.768;18.262;2023-05-07T02:25:04;17.08;;;10.45;;
59468;SDS011;45277;52.768;18.262;2023-05-07T02:26:35;18.08;;;9.25;;
59468;SDS011;45277;52.768;18.262;2023-05-07T02:28:07;21.38;;;9.43;;
59468;SDS011;45277;52.768;18.262;2023-05-07T02:29:38;17.55;;;9.60;;
59468;SDS011;45277;52.768;18.262;2023-05-07T02:31:10;15.00;;;10.02;;
59468;SDS011;45277;52.768;18.262;2023-05-07T02:32:41;15.05;;;9.80;;
59468;SDS011;45277;52.768;18.262;2023-05-07T02:34:13;16.10;;;10.32;;
59468;SDS011;45277;52.768;18.262;2023-05-07T02:35:44;14.63;;;10.43;;
59468;SDS011;45277;52.768;18.262;2023-05-07T02:37:15;16.58;;;10.55;;
59468;SDS011;45277;52.768;18.262;2023-05-07T02:38:47;15.05;;;9.75;;
59468;SDS011;45277;52.768;18.262;2023-05-07T02:40:19;16.55;;;10.27;;
59468;SDS011;45277;52.768;18.262;2023-05-07T02:41:50;17.73;;;10.60;;
59468;SDS011;45277;52.768;18.262;2023-05-07T02:43:22;16.75;;;10.38;;
59468;SDS011;45277;52.768;18.262;2023-05-07T02:44:53;15.82;;;10.35;;
59468;SDS011;45277;52.768;18.262;2023-05-07T02:46:24;16.63;;;10.73;;
59468;SDS011;45277;52.768;18.262;2023-05-07T02:47:56;19.98;;;11.15;;
59468;SDS011;45277;52.768;18.262;2023-05-07T02:49:27;18.63;;;10.93;;
59468;SDS011;45277;52.768;18.262;2023-05-07T02:50:59;20.73;;;10.63;;
59468;SDS011;45277;52.768;18.262;2023-05-07T02:52:31;17.45;;;10.90;;
59468;SDS011;45277;52.768;18.262;2023-05-07T02:54:02;18.08;;;10.65;;
59468;SDS011;45277;52.768;18.262;2023-05-07T02:55:34;22.45;;;11.50;;
59468;SDS011;45277;52.768;18.262;2023-05-07T02:57:05;18.25;;;10.95;;
59468;SDS011;45277;52.768;18.262;2023-05-07T02:58:37;20.40;;;11.38;;
59468;SDS011;45277;52.768;18.262;2023-05-07T03:00:10;20.58;;;11.10;;
59468;SDS011;45277;52.768;18.262;2023-05-07T03:01:43;15.25;;;10.52;;
59468;SDS011;45277;52.768;18.262;2023-05-07T03:03:15;20.02;;;11.50;;
59468;SDS011;45277;52.768;18.262;2023-05-07T03:04:47;18.55;;;10.65;;
59468;SDS011;45277;52.768;18.262;2023-05-07T03:06:19;19.98;;;12.32;;
59468;SDS011;45277;52.768;18.262;2023-05-07T03:07:50;17.90;;;11.18;;
59468;SDS011;45277;52.768;18.262;2023-05-07T03:09:21;20.20;;;12.60;;
59468;SDS011;45277;52.768;18.262;2023-05-07T03:10:53;19.02;;;11.52;;
59468;SDS011;45277;52.768;18.262;2023-05-07T03:12:24;19.02;;;11.88;;
59468;SDS011;45277;52.768;18.262;2023-05-07T03:13:56;17.10;;;11.43;;
59468;SDS011;45277;52.768;18.262;2023-05-07T03:15:27;21.05;;;12.00;;
59468;SDS011;45277;52.768;18.262;2023-05-07T03:16:59;21.85;;;11.63;;
59468;SDS011;45277;52.768;18.262;2023-05-07T03:18:30;18.55;;;11.02;;
59468;SDS011;45277;52.768;18.262;2023-05-07T03:20:02;17.50;;;12.05;;
59468;SDS011;45277;52.768;18.262;2023-05-07T03:21:33;18.52;;;11.23;;
59468;SDS011;45277;52.768;18.262;2023-05-07T03:23:05;19.05;;;12.15;;
59468;SDS011;45277;52.768;18.262;2023-05-07T03:24:36;22.83;;;11.95;;
59468;SDS011;45277;52.768;18.262;2023-05-07T03:26:08;19.67;;;11.35;;
59468;SDS011;45277;52.768;18.262;2023-05-07T03:27:39;20.25;;;12.15;;
59468;SDS011;45277;52.768;18.262;2023-05-07T03:29:12;21.25;;;11.82;;
59468;SDS011;45277;52.768;18.262;2023-05-07T03:30:43;18.38;;;12.00;;
59468;SDS011;45277;52.768;18.262;2023-05-07T03:32:15;21.27;;;13.13;;
59468;SDS011;45277;52.768;18.262;2023-05-07T03:33:53;18.52;;;12.85;;
59468;SDS011;45277;52.768;18.262;2023-05-07T03:35:25;19.00;;;12.27;;
59468;SDS011;45277;52.768;18.262;2023-05-07T03:36:57;19.73;;;12.45;;
59468;SDS011;45277;52.768;18.262;2023-05-07T03:38:29;21.58;;;12.95;;
59468;SDS011;45277;52.768;18.262;2023-05-07T03:40:00;18.65;;;12.27;;
59468;SDS011;45277;52.768;18.262;2023-05-07T03:41:32;18.50;;;11.35;;
59468;SDS011;45277;52.768;18.262;2023-05-07T03:43:04;18.23;;;11.85;;
59468;SDS011;45277;52.768;18.262;2023-05-07T03:44:35;19.17;;;12.10;;
59468;SDS011;45277;52.768;18.262;2023-05-07T03:46:07;20.80;;;12.57;;
59468;SDS011;45277;52.768;18.262;2023-05-07T03:47:38;21.02;;;12.30;;
59468;SDS011;45277;52.768;18.262;2023-05-07T03:49:10;18.10;;;12.27;;
59468;SDS011;45277;52.768;18.262;2023-05-07T03:50:41;18.27;;;12.05;;
59468;SDS011;45277;52.768;18.262;2023-05-07T03:52:13;18.27;;;10.93;;
59468;SDS011;45277;52.768;18.262;2023-05-07T03:53:45;17.63;;;11.68;;
59468;SDS011;45277;52.768;18.262;2023-05-07T03:55:16;17.95;;;11.50;;
59468;SDS011;45277;52.768;18.262;2023-05-07T03:56:48;19.10;;;11.57;;
59468;SDS011;45277;52.768;18.262;2023-05-07T03:58:19;18.35;;;11.50;;
59468;SDS011;45277;52.768;18.262;2023-05-07T03:59:50;17.63;;;11.73;;
59468;SDS011;45277;52.768;18.262;2023-05-07T04:01:22;19.00;;;11.13;;
59468;SDS011;45277;52.768;18.262;2023-05-07T04:02:53;16.92;;;11.60;;
59468;SDS011;45277;52.768;18.262;2023-05-07T04:04:24;17.67;;;10.82;;
59468;SDS011;45277;52.768;18.262;2023-05-07T04:05:56;18.23;;;10.00;;
59468;SDS011;45277;52.768;18.262;2023-05-07T04:07:27;18.80;;;11.20;;
59468;SDS011;45277;52.768;18.262;2023-05-07T04:08:59;20.63;;;10.75;;
59468;SDS011;45277;52.768;18.262;2023-05-07T04:10:30;20.05;;;11.30;;
59468;SDS011;45277;52.768;18.262;2023-05-07T04:12:02;19.02;;;11.02;;
59468;SDS011;45277;52.768;18.262;2023-05-07T04:13:33;20.63;;;11.80;;
59468;SDS011;45277;52.768;18.262;2023-05-07T04:15:05;25.52;;;13.23;;
59468;SDS011;45277;52.768;18.262;2023-05-07T04:16:37;19.10;;;12.00;;
59468;SDS011;45277;52.768;18.262;2023-05-07T04:18:08;18.90;;;11.25;;
59468;SDS011;45277;52.768;18.262;2023-05-07T04:19:40;18.38;;;12.15;;
59468;SDS011;45277;52.768;18.262;2023-05-07T04:21:18;17.40;;;11.20;;
59468;SDS011;45277;52.768;18.262;2023-05-07T04:22:50;19.52;;;11.65;;
59468;SDS011;45277;52.768;18.262;2023-05-07T04:24:22;18.42;;;11.50;;
59468;SDS011;45277;52.768;18.262;2023-05-07T04:25:54;21.92;;;11.32;;
59468;SDS011;45277;52.768;18.262;2023-05-07T04:27:25;24.02;;;11.43;;
59468;SDS011;45277;52.768;18.262;2023-05-07T04:28:59;20.88;;;10.85;;
59468;SDS011;45277;52.768;18.262;2023-05-07T04:30:30;16.75;;;10.82;;
59468;SDS011;45277;52.768;18.262;2023-05-07T04:32:01;16.30;;;10.57;;
59468;SDS011;45277;52.768;18.262;2023-05-07T04:33:33;20.05;;;11.93;;
59468;SDS011;45277;52.768;18.262;2023-05-07T04:35:05;19.77;;;11.50;;
59468;SDS011;45277;52.768;18.262;2023-05-07T04:36:37;18.40;;;11.07;;
59468;SDS011;45277;52.768;18.262;2023-05-07T04:38:09;16.65;;;11.27;;
59468;SDS011;45277;52.768;18.262;2023-05-07T04:39:41;17.73;;;11.25;;
59468;SDS011;45277;52.768;18.262;2023-05-07T04:41:12;16.88;;;11.02;;
59468;SDS011;45277;52.768;18.262;2023-05-07T04:42:44;17.38;;;10.85;;
59468;SDS011;45277;52.768;18.262;2023-05-07T04:44:16;15.95;;;10.30;;
59468;SDS011;45277;52.768;18.262;2023-05-07T04:45:47;15.45;;;10.40;;
59468;SDS011;45277;52.768;18.262;2023-05-07T04:47:20;14.73;;;9.85;;
59468;SDS011;45277;52.768;18.262;2023-05-07T04:48:51;17.45;;;10.02;;
59468;SDS011;45277;52.768;18.262;2023-05-07T04:50:23;14.98;;;10.10;;
59468;SDS011;45277;52.768;18.262;2023-05-07T04:51:55;13.60;;;9.38;;
59468;SDS011;45277;52.768;18.262;2023-05-07T04:53:26;14.90;;;10.07;;
59468;SDS011;45277;52.768;18.262;2023-05-07T04:55:00;13.98;;;9.25;;
59468;SDS011;45277;52.768;18.262;2023-05-07T04:56:32;15.57;;;9.95;;
59468;SDS011;45277;52.768;18.262;2023-05-07T04:58:04;15.00;;;9.05;;
59468;SDS011;45277;52.768;18.262;2023-05-07T04:59:35;13.93;;;8.73;;
59468;SDS011;45277;52.768;18.262;2023-05-07T05:01:07;20.98;;;9.38;;
59468;SDS011;45277;52.768;18.262;2023-05-07T05:02:38;16.10;;;9.60;;
59468;SDS011;45277;52.768;18.262;2023-05-07T05:04:09;12.27;;;8.05;;
59468;SDS011;45277;52.768;18.262;2023-05-07T05:05:41;14.48;;;8.65;;
59468;SDS011;45277;52.768;18.262;2023-05-07T05:07:12;17.17;;;9.57;;
59468;SDS011;45277;52.768;18.262;2023-05-07T05:08:44;13.75;;;8.68;;
59468;SDS011;45277;52.768;18.262;2023-05-07T05:10:15;11.55;;;7.70;;
59468;SDS011;45277;52.768;18.262;2023-05-07T05:11:47;12.38;;;8.48;;
59468;SDS011;45277;52.768;18.262;2023-05-07T05:13:18;15.70;;;8.65;;
59468;SDS011;45277;52.768;18.262;2023-05-07T05:14:50;12.52;;;8.55;;
59468;SDS011;45277;52.768;18.262;2023-05-07T05:16:21;13.70;;;7.45;;
59468;SDS011;45277;52.768;18.262;2023-05-07T05:17:53;10.98;;;7.30;;
59468;SDS011;45277;52.768;18.262;2023-05-07T05:19:24;12.48;;;8.15;;
59468;SDS011;45277;52.768;18.262;2023-05-07T05:20:55;15.52;;;7.40;;
59468;SDS011;45277;52.768;18.262;2023-05-07T05:22:27;10.38;;;7.00;;
59468;SDS011;45277;52.768;18.262;2023-05-07T05:24:01;12.10;;;7.18;;
59468;SDS011;45277;52.768;18.262;2023-05-07T05:25:33;13.20;;;7.15;;
59468;SDS011;45277;52.768;18.262;2023-05-07T05:27:04;10.55;;;6.53;;
59468;SDS011;45277;52.768;18.262;2023-05-07T05:28:36;11.38;;;7.07;;
59468;SDS011;45277;52.768;18.262;2023-05-07T05:30:07;9.88;;;6.35;;
59468;SDS011;45277;52.768;18.262;2023-05-07T05:31:39;10.52;;;6.88;;
59468;SDS011;45277;52.768;18.262;2023-05-07T05:33:12;8.60;;;6.10;;
59468;SDS011;45277;52.768;18.262;2023-05-07T05:34:43;10.38;;;6.45;;
59468;SDS011;45277;52.768;18.262;2023-05-07T05:36:15;7.50;;;6.00;;
59468;SDS011;45277;52.768;18.262;2023-05-07T05:37:47;10.02;;;5.95;;
59468;SDS011;45277;52.768;18.262;2023-05-07T05:39:18;9.38;;;5.72;;
59468;SDS011;45277;52.768;18.262;2023-05-07T05:40:49;12.80;;;6.35;;
59468;SDS011;45277;52.768;18.262;2023-05-07T05:42:21;7.47;;;5.32;;
59468;SDS011;45277;52.768;18.262;2023-05-07T05:43:52;10.80;;;5.90;;
59468;SDS011;45277;52.768;18.262;2023-05-07T05:45:24;9.15;;;5.97;;
59468;SDS011;45277;52.768;18.262;2023-05-07T05:46:56;10.73;;;5.97;;
59468;SDS011;45277;52.768;18.262;2023-05-07T05:48:29;9.52;;;5.32;;
59468;SDS011;45277;52.768;18.262;2023-05-07T05:50:01;8.10;;;5.22;;
59468;SDS011;45277;52.768;18.262;2023-05-07T05:51:33;10.95;;;5.65;;
59468;SDS011;45277;52.768;18.262;2023-05-07T05:53:04;9.73;;;5.45;;
59468;SDS011;45277;52.768;18.262;2023-05-07T05:54:36;9.15;;;5.00;;
59468;SDS011;45277;52.768;18.262;2023-05-07T05:56:07;5.72;;;4.43;;
59468;SDS011;45277;52.768;18.262;2023-05-07T05:57:39;8.35;;;5.03;;
59468;SDS011;45277;52.768;18.262;2023-05-07T05:59:10;6.65;;;4.18;;
59468;SDS011;45277;52.768;18.262;2023-05-07T06:00:42;6.95;;;4.78;;
59468;SDS011;45277;52.768;18.262;2023-05-07T06:02:15;7.80;;;4.90;;
59468;SDS011;45277;52.768;18.262;2023-05-07T06:03:46;7.05;;;4.32;;
59468;SDS011;45277;52.768;18.262;2023-05-07T06:05:18;5.45;;;4.28;;
59468;SDS011;45277;52.768;18.262;2023-05-07T06:06:50;9.07;;;4.13;;
59468;SDS011;45277;52.768;18.262;2023-05-07T06:08:21;6.22;;;3.85;;
59468;SDS011;45277;52.768;18.262;2023-05-07T06:09:53;5.68;;;3.97;;
59468;SDS011;45277;52.768;18.262;2023-05-07T06:11:24;5.85;;;3.75;;
59468;SDS011;45277;52.768;18.262;2023-05-07T06:12:56;4.95;;;3.67;;
59468;SDS011;45277;52.768;18.262;2023-05-07T06:14:28;4.85;;;3.78;;
59468;SDS011;45277;52.768;18.262;2023-05-07T06:15:59;5.43;;;4.05;;
59468;SDS011;45277;52.768;18.262;2023-05-07T06:17:31;6.75;;;3.80;;
59468;SDS011;45277;52.768;18.262;2023-05-07T06:19:03;8.48;;;3.53;;
59468;SDS011;45277;52.768;18.262;2023-05-07T06:20:34;8.82;;;3.92;;
59468;SDS011;45277;52.768;18.262;2023-05-07T06:22:06;4.38;;;3.30;;
59468;SDS011;45277;52.768;18.262;2023-05-07T06:23:38;5.40;;;3.72;;
59468;SDS011;45277;52.768;18.262;2023-05-07T06:25:11;4.93;;;3.60;;
59468;SDS011;45277;52.768;18.262;2023-05-07T06:26:42;5.82;;;4.00;;
59468;SDS011;45277;52.768;18.262;2023-05-07T06:28:14;5.03;;;3.90;;
59468;SDS011;45277;52.768;18.262;2023-05-07T06:29:47;6.82;;;3.67;;
59468;SDS011;45277;52.768;18.262;2023-05-07T06:31:19;5.75;;;3.65;;
59468;SDS011;45277;52.768;18.262;2023-05-07T06:32:51;6.28;;;3.90;;
59468;SDS011;45277;52.768;18.262;2023-05-07T06:34:23;5.43;;;3.58;;
59468;SDS011;45277;52.768;18.262;2023-05-07T06:35:54;5.22;;;4.07;;
59468;SDS011;45277;52.768;18.262;2023-05-07T06:37:26;8.95;;;4.00;;
59468;SDS011;45277;52.768;18.262;2023-05-07T06:38:57;5.88;;;3.85;;
59468;SDS011;45277;52.768;18.262;2023-05-07T06:40:29;5.53;;;4.03;;
59468;SDS011;45277;52.768;18.262;2023-05-07T06:42:01;5.38;;;3.80;;
59468;SDS011;45277;52.768;18.262;2023-05-07T06:43:33;5.68;;;3.75;;
59468;SDS011;45277;52.768;18.262;2023-05-07T06:45:04;5.07;;;3.75;;
59468;SDS011;45277;52.768;18.262;2023-05-07T06:46:36;7.15;;;3.30;;
59468;SDS011;45277;52.768;18.262;2023-05-07T06:48:08;7.03;;;4.03;;
59468;SDS011;45277;52.768;18.262;2023-05-07T06:49:39;7.10;;;4.03;;
59468;SDS011;45277;52.768;18.262;2023-05-07T06:51:11;5.03;;;3.67;;
59468;SDS011;45277;52.768;18.262;2023-05-07T06:52:42;4.72;;;3.38;;
59468;SDS011;45277;52.768;18.262;2023-05-07T06:54:14;7.47;;;3.47;;
59468;SDS011;45277;52.768;18.262;2023-05-07T06:55:46;5.85;;;3.33;;
59468;SDS011;45277;52.768;18.262;2023-05-07T06:57:17;5.05;;;3.13;;
59468;SDS011;45277;52.768;18.262;2023-05-07T06:58:48;6.13;;;3.55;;
59468;SDS011;45277;52.768;18.262;2023-05-07T07:00:20;5.28;;;3.35;;
59468;SDS011;45277;52.768;18.262;2023-05-07T07:01:52;5.43;;;3.35;;
59468;SDS011;45277;52.768;18.262;2023-05-07T07:03:23;4.75;;;3.40;;
59468;SDS011;45277;52.768;18.262;2023-05-07T07:04:55;4.20;;;3.30;;
59468;SDS011;45277;52.768;18.262;2023-05-07T07:06:26;4.40;;;3.15;;
59468;SDS011;45277;52.768;18.262;2023-05-07T07:07:58;5.55;;;3.58;;
59468;SDS011;45277;52.768;18.262;2023-05-07T07:09:29;10.32;;;3.80;;
59468;SDS011;45277;52.768;18.262;2023-05-07T07:11:01;5.72;;;3.80;;
59468;SDS011;45277;52.768;18.262;2023-05-07T07:12:33;5.28;;;3.80;;
59468;SDS011;45277;52.768;18.262;2023-05-07T07:14:05;5.38;;;3.35;;
59468;SDS011;45277;52.768;18.262;2023-05-07T07:15:36;7.95;;;4.13;;
59468;SDS011;45277;52.768;18.262;2023-05-07T07:17:08;5.40;;;4.20;;
59468;SDS011;45277;52.768;18.262;2023-05-07T07:18:40;6.25;;;4.03;;
59468;SDS011;45277;52.768;18.262;2023-05-07T07:20:11;10.07;;;3.92;;
59468;SDS011;45277;52.768;18.262;2023-05-07T07:21:43;5.85;;;3.83;;
59468;SDS011;45277;52.768;18.262;2023-05-07T07:23:15;6.00;;;3.72;;
59468;SDS011;45277;52.768;18.262;2023-05-07T07:24:47;5.03;;;3.30;;
59468;SDS011;45277;52.768;18.262;2023-05-07T07:26:18;5.15;;;3.53;;
59468;SDS011;45277;52.768;18.262;2023-05-07T07:27:50;4.30;;;3.10;;
59468;SDS011;45277;52.768;18.262;2023-05-07T07:29:21;4.22;;;3.70;;
59468;SDS011;45277;52.768;18.262;2023-05-07T07:30:53;5.30;;;3.67;;
59468;SDS011;45277;52.768;18.262;2023-05-07T07:32:25;5.65;;;3.22;;
59468;SDS011;45277;52.768;18.262;2023-05-07T07:33:56;4.25;;;3.38;;
59468;SDS011;45277;52.768;18.262;2023-05-07T07:35:28;6.00;;;3.70;;
59468;SDS011;45277;52.768;18.262;2023-05-07T07:37:00;6.10;;;3.80;;
59468;SDS011;45277;52.768;18.262;2023-05-07T07:38:35;5.47;;;3.75;;
59468;SDS011;45277;52.768;18.262;2023-05-07T07:40:07;3.92;;;3.17;;
59468;SDS011;45277;52.768;18.262;2023-05-07T07:41:39;6.03;;;3.60;;
59468;SDS011;45277;52.768;18.262;2023-05-07T07:43:11;6.55;;;3.60;;
59468;SDS011;45277;52.768;18.262;2023-05-07T07:44:42;6.32;;;3.53;;
59468;SDS011;45277;52.768;18.262;2023-05-07T07:46:14;8.52;;;4.20;;
59468;SDS011;45277;52.768;18.262;2023-05-07T07:47:46;5.32;;;3.60;;
59468;SDS011;45277;52.768;18.262;2023-05-07T07:49:17;5.60;;;4.22;;
59468;SDS011;45277;52.768;18.262;2023-05-07T07:50:49;6.45;;;3.88;;
59468;SDS011;45277;52.768;18.262;2023-05-07T07:52:24;5.45;;;3.72;;
59468;SDS011;45277;52.768;18.262;2023-05-07T07:53:55;6.78;;;3.83;;
59468;SDS011;45277;52.768;18.262;2023-05-07T07:55:28;9.50;;;3.63;;
59468;SDS011;45277;52.768;18.262;2023-05-07T07:57:01;5.75;;;4.00;;
59468;SDS011;45277;52.768;18.262;2023-05-07T07:58:33;4.30;;;3.63;;
59468;SDS011;45277;52.768;18.262;2023-05-07T08:00:06;6.18;;;3.58;;
59468;SDS011;45277;52.768;18.262;2023-05-07T08:01:38;4.75;;;3.95;;
59468;SDS011;45277;52.768;18.262;2023-05-07T08:03:10;5.40;;;3.80;;
59468;SDS011;45277;52.768;18.262;2023-05-07T08:04:42;4.57;;;3.47;;
59468;SDS011;45277;52.768;18.262;2023-05-07T08:08:25;5.55;;;3.25;;
59468;SDS011;45277;52.768;18.262;2023-05-07T08:09:56;4.57;;;3.13;;
59468;SDS011;45277;52.768;18.262;2023-05-07T08:11:28;5.30;;;2.97;;
59468;SDS011;45277;52.768;18.262;2023-05-07T08:12:59;6.35;;;2.78;;
59468;SDS011;45277;52.768;18.262;2023-05-07T08:14:32;5.28;;;2.95;;
59468;SDS011;45277;52.768;18.262;2023-05-07T08:16:05;7.53;;;3.58;;
59468;SDS011;45277;52.768;18.262;2023-05-07T08:17:37;5.40;;;3.03;;
59468;SDS011;45277;52.768;18.262;2023-05-07T08:19:08;3.97;;;2.97;;
59468;SDS011;45277;52.768;18.262;2023-05-07T08:20:40;3.42;;;3.13;;
59468;SDS011;45277;52.768;18.262;2023-05-07T08:22:12;8.10;;;2.70;;
59468;SDS011;45277;52.768;18.262;2023-05-07T08:23:43;4.22;;;2.65;;
59468;SDS011;45277;52.768;18.262;2023-05-07T08:25:15;3.75;;;2.90;;
59468;SDS011;45277;52.768;18.262;2023-05-07T08:26:46;5.75;;;3.30;;
59468;SDS011;45277;52.768;18.262;2023-05-07T08:28:18;5.05;;;3.50;;
59468;SDS011;45277;52.768;18.262;2023-05-07T08:29:50;5.00;;;2.92;;
59468;SDS011;45277;52.768;18.262;2023-05-07T08:31:22;3.75;;;2.75;;
59468;SDS011;45277;52.768;18.262;2023-05-07T08:32:53;3.85;;;2.80;;
59468;SDS011;45277;52.768;18.262;2023-05-07T08:34:25;3.85;;;2.70;;
59468;SDS011;45277;52.768;18.262;2023-05-07T08:35:56;4.47;;;2.58;;
59468;SDS011;45277;52.768;18.262;2023-05-07T08:37:28;2.88;;;2.53;;
59468;SDS011;45277;52.768;18.262;2023-05-07T08:38:59;2.90;;;2.50;;
59468;SDS011;45277;52.768;18.262;2023-05-07T08:40:33;3.53;;;2.95;;
59468;SDS011;45277;52.768;18.262;2023-05-07T08:42:11;3.72;;;2.90;;
59468;SDS011;45277;52.768;18.262;2023-05-07T08:43:47;4.65;;;3.10;;
59468;SDS011;45277;52.768;18.262;2023-05-07T08:45:23;4.40;;;3.10;;
59468;SDS011;45277;52.768;18.262;2023-05-07T08:46:56;4.57;;;2.70;;
59468;SDS011;45277;52.768;18.262;2023-05-07T08:48:29;9.77;;;3.10;;
59468;SDS011;45277;52.768;18.262;2023-05-07T08:50:03;3.50;;;2.83;;
59468;SDS011;45277;52.768;18.262;2023-05-07T08:51:36;4.72;;;2.85;;
59468;SDS011;45277;52.768;18.262;2023-05-07T08:53:08;3.95;;;2.88;;
59468;SDS011;45277;52.768;18.262;2023-05-07T08:54:40;4.40;;;2.55;;
59468;SDS011;45277;52.768;18.262;2023-05-07T08:56:12;4.28;;;2.97;;
59468;SDS011;45277;52.768;18.262;2023-05-07T08:57:45;3.55;;;2.78;;
59468;SDS011;45277;52.768;18.262;2023-05-07T08:59:18;3.50;;;2.70;;